Dades meteomassalio
Diari Summary for Octubre 18, 2017 Units:  Metric    English   Both
« Previous Day
Next Day »
Diari Semanal Mensual Anual Personalitzat
  Maxima: Minima: Mijana:
Temperatura: -17.8 °C -11 °C -9.1 °C
Rosada: -17.8 °C -11.7 °C -10.5 °C
Humitat: Humidity % 65 % 85 %
Velocitat del vent: 0 km/h 0 km/h 9.5 km/h
Racha vent: 0 km/h - -
Vent:- - East
Pressio: 0 hPa 34198.6 hPa -
Pluja: 109.22 mm    
Historical Graphs
 
 
Tabular Data for Octubre 18, 2017
Time Temperature Dew Point Pressure Wind Wind Speed Wind Gust Humidity Rainfall Rate (Hourly) solar Conditions
-17.8 °C -17.8 °C 0 hPa Calm     Humidity % 0 mm SolarRadiationWatts/m^2 W/m2 Conditions
00:01 -8.8 °C -10.9 °C 34567.7 hPa Calm     78 % 0 mm 0.0 W/m2 RA
00:06 -8.8 °C -10.9 °C 34554.1 hPa Calm     78 % 0 mm 0.0 W/m2 CLR
00:11 -8.8 °C -10.9 °C 34554.1 hPa Calm     78 % 0 mm 0.0 W/m2 CLR
00:16 -8.8 °C -10.9 °C 34554.1 hPa Calm     79 % 0 mm 0.0 W/m2 CLR
00:21 -8.8 °C -10.9 °C 34554.1 hPa Calm     79 % 0 mm 0.0 W/m2 CLR
00:26 -8.8 °C -10.9 °C 34544 hPa Calm     79 % 0 mm 0.0 W/m2 CLR
00:31 -8.8 °C -10.9 °C 34544 hPa Calm     79 % 0 mm 0.0 W/m2 CLR
00:36 -8.8 °C -10.9 °C 34544 hPa Calm     79 % 0 mm 0.0 W/m2 CLR
00:41 -8.8 °C -10.7 °C 34544 hPa NW 9 km/h   80 % 0 mm 0.0 W/m2 CLR
00:46 -8.8 °C -10.7 °C 34544 hPa Calm     80 % 0 mm 0.0 W/m2 CLR
00:51 -8.8 °C -10.7 °C 34533.8 hPa Calm     80 % 0 mm 0.0 W/m2 CLR
00:56 -8.8 °C -10.7 °C 34544 hPa Calm     81 % 0 mm 0.0 W/m2 CLR
01:01 -8.8 °C -10.7 °C 34544 hPa Calm     81 % 0 mm 0.0 W/m2 CLR
01:06 -8.8 °C -10.5 °C 34544 hPa Calm     82 % 0 mm 0.0 W/m2 CLR
01:11 -8.8 °C -10.5 °C 34533.8 hPa Calm     82 % 0 mm 0.0 W/m2 CLR
01:16 -8.8 °C -10.5 °C 34533.8 hPa Calm     82 % 0 mm 0.0 W/m2 CLR
01:21 -8.8 °C -10.5 °C 34533.8 hPa Calm     82 % 0 mm 0.0 W/m2 CLR
01:26 -8.8 °C -10.5 °C 34533.8 hPa Calm     82 % 7.62 mm 0.0 W/m2 RA
01:31 -8.8 °C -10.5 °C 34533.8 hPa Calm     82 % 7.62 mm 0.0 W/m2 CLR
01:37 -8.8 °C -10.4 °C 34533.8 hPa Calm     83 % 7.62 mm 0.0 W/m2 CLR
01:42 -9.1 °C -10.6 °C 34544 hPa Calm     84 % 7.62 mm 0.0 W/m2 CLR
01:47 -9.1 °C -10.6 °C 34533.8 hPa Calm     84 % 7.62 mm 0.0 W/m2 CLR
01:52 -8.8 °C -10.2 °C 34533.8 hPa Calm     85 % 12.7 mm 0.0 W/m2 RA
01:57 -8.8 °C -10.2 °C 34533.8 hPa Calm     85 % 12.7 mm 0.0 W/m2 CLR
02:02 -9.1 °C -10.5 °C 34533.8 hPa Calm     85 % 12.7 mm 0.0 W/m2 CLR
02:07 -9.1 °C -10.5 °C 34520.3 hPa NE 9 km/h 9 km/h 85 % 12.7 mm 0.0 W/m2 CLR
02:12 -9.1 °C -10.5 °C 34520.3 hPa Calm     85 % 12.7 mm 0.0 W/m2 CLR
02:17 -9.1 °C -10.5 °C 34520.3 hPa Calm     85 % 12.7 mm 0.0 W/m2 CLR
02:22 -9.1 °C -10.4 °C 34533.8 hPa Calm     86 % 12.7 mm 0.0 W/m2 CLR
02:27 -9.1 °C -10.5 °C 34520.3 hPa Calm     85 % 7.62 mm 0.0 W/m2 CLR
02:32 -9.1 °C -10.5 °C 34520.3 hPa NE 11.9 km/h 11.9 km/h 85 % 7.62 mm 0.0 W/m2 CLR
02:37 -9.4 °C -10.8 °C 34520.3 hPa Calm     85 % 7.62 mm 0.0 W/m2 CLR
02:42 -9.4 °C -10.7 °C 34520.3 hPa Calm     86 % 7.62 mm 0.0 W/m2 CLR
02:47 -9.4 °C -10.7 °C 34520.3 hPa Calm     86 % 7.62 mm 0.0 W/m2 CLR
02:52 -9.4 °C -10.7 °C 34510.1 hPa Calm     87 % 0 mm 0.0 W/m2 CLR
02:57 -9.4 °C -10.7 °C 34510.1 hPa Calm     87 % 7.62 mm 0.0 W/m2 RA
03:02 -9.4 °C -10.7 °C 34510.1 hPa Calm     87 % 7.62 mm 0.0 W/m2
03:07 -9.4 °C -10.7 °C 34510.1 hPa Calm     87 % 7.62 mm 0.0 W/m2 CLR
03:12 -9.4 °C -10.7 °C 34510.1 hPa Calm     87 % 7.62 mm 0.0 W/m2 CLR
03:17 -9.1 °C -10.2 °C 34496.6 hPa Calm     88 % 7.62 mm 0.0 W/m2 CLR
03:22 -9.1 °C -10.2 °C 34496.6 hPa Calm     88 % 7.62 mm 0.0 W/m2 CLR
03:27 -9.1 °C -10.2 °C 34496.6 hPa Calm     89 % 7.62 mm 0.0 W/m2 CLR
03:32 -9.4 °C -10.4 °C 34496.6 hPa Calm     89 % 7.62 mm 0.0 W/m2 CLR
03:37 -9.1 °C -10.2 °C 34496.6 hPa Calm     89 % 7.62 mm 0.0 W/m2 CLR
03:42 -8.8 °C -9.8 °C 34486.4 hPa Calm     89 % 7.62 mm 0.0 W/m2 CLR
03:47 -9.1 °C -10.2 °C 34486.4 hPa Calm     89 % 7.62 mm 0.0 W/m2 CLR
03:52 -9.1 °C -10.2 °C 34486.4 hPa Calm     89 % 7.62 mm 0.0 W/m2 CLR
03:57 -9.1 °C -10.2 °C 34486.4 hPa Calm     89 % 0 mm 0.0 W/m2 CLR
04:02 -9.1 °C -10.2 °C 34476.3 hPa Calm     89 % 0 mm 0.0 W/m2 CLR
04:07 -9.1 °C -10.2 °C 34476.3 hPa Calm     89 % 0 mm 0.0 W/m2 CLR
04:12 -9.4 °C -10.4 °C 34476.3 hPa Calm     89 % 0 mm 0.0 W/m2 CLR
04:17 -9.4 °C -10.4 °C 34476.3 hPa Calm     89 % 0 mm 0.0 W/m2 CLR
04:22 -9.4 °C -10.4 °C 34476.3 hPa Calm     89 % 0 mm 0.0 W/m2 CLR
04:27 -9.4 °C -10.4 °C 34476.3 hPa Calm     89 % 0 mm 0.0 W/m2 CLR
04:32 -9.4 °C -10.4 °C 34476.3 hPa Calm     89 % 0 mm 0.0 W/m2 CLR
04:37 -9.4 °C -10.3 °C 34462.7 hPa Calm     90 % 0 mm 0.0 W/m2 CLR
04:42 -9.4 °C -10.3 °C 34462.7 hPa Calm     90 % 0 mm 0.0 W/m2 CLR
04:47 -9.4 °C -10.3 °C 34462.7 hPa Calm     90 % 0 mm 0.0 W/m2 CLR
04:52 -9.4 °C -10.3 °C 34462.7 hPa Calm     90 % 0 mm 0.0 W/m2 CLR
04:57 -9.4 °C -10.3 °C 34452.6 hPa Calm     90 % 0 mm 0.0 W/m2 CLR
05:02 -9.4 °C -10.3 °C 34452.6 hPa Calm     90 % 0 mm 0.0 W/m2 CLR
05:07 -9.4 °C -10.3 °C 34452.6 hPa Calm     90 % 0 mm 0.0 W/m2 CLR
05:12 -9.8 °C -10.6 °C 34452.6 hPa Calm     91 % 0 mm 0.0 W/m2 CLR
05:18 -9.8 °C -10.6 °C 34452.6 hPa Calm     91 % 0 mm 0.0 W/m2 CLR
05:22 -9.8 °C -10.6 °C 34452.6 hPa Calm     91 % 0 mm 0.0 W/m2 CLR
05:23 -9.8 °C -10.6 °C 34452.6 hPa Calm     91 % 0 mm 0.0 W/m2 CLR
05:25 -9.8 °C -10.6 °C 34442.4 hPa Calm     91 % 0 mm 0.0 W/m2 CLR
05:26 -9.8 °C -10.6 °C 34442.4 hPa Calm     91 % 0 mm 0.0 W/m2 CLR
05:29 -9.8 °C -10.6 °C 34442.4 hPa Calm     91 % 0 mm 0.0 W/m2 CLR
05:31 -9.8 °C -10.6 °C 34442.4 hPa Calm     91 % 0 mm 0.0 W/m2 CLR
05:36 -9.8 °C -10.6 °C 34442.4 hPa Calm     91 % 0 mm 0.0 W/m2 CLR
05:40 -9.8 °C -10.6 °C 34442.4 hPa Calm     91 % 0 mm 0.0 W/m2 CLR
05:45 -10.1 °C -10.9 °C 34442.4 hPa Calm     91 % 0 mm 0.0 W/m2 CLR
05:50 -10.1 °C -10.9 °C 34442.4 hPa Calm     91 % 0 mm 0.0 W/m2 CLR
05:55 -10.1 °C -10.9 °C 34442.4 hPa Calm     91 % 0 mm 0.0 W/m2 CLR
06:00 -10.1 °C -10.9 °C 34428.8 hPa Calm     91 % 0 mm 0.0 W/m2 CLR
06:05 -10.1 °C -10.9 °C 34428.8 hPa Calm     91 % 0 mm 0.0 W/m2 CLR
06:10 -10.1 °C -10.9 °C 34428.8 hPa Calm     91 % 0 mm 0.0 W/m2 CLR
06:15 -10.4 °C -11.2 °C 34428.8 hPa Calm     91 % 0 mm 0.0 W/m2 CLR
06:20 -10.1 °C -10.9 °C 34428.8 hPa Calm     91 % 0 mm 0.0 W/m2 CLR
06:25 -10.1 °C -10.8 °C 34428.8 hPa Calm     92 % 0 mm 0.0 W/m2 CLR
06:30 -10.1 °C -10.9 °C 34428.8 hPa Calm     91 % 0 mm 0.0 W/m2 CLR
06:35 -10.1 °C -10.9 °C 34428.8 hPa Calm     91 % 0 mm 0.0 W/m2 CLR
06:40 -10.1 °C -10.9 °C 34428.8 hPa Calm     91 % 0 mm 0.0 W/m2 CLR
06:45 -10.1 °C -10.8 °C 34418.7 hPa Calm     92 % 0 mm 0.0 W/m2 CLR
06:50 -10.1 °C -10.8 °C 34418.7 hPa Calm     92 % 0 mm 0.0 W/m2 CLR
06:55 -10.1 °C -10.8 °C 34418.7 hPa Calm     92 % 0 mm 0.0 W/m2 CLR
07:00 -10.1 °C -10.8 °C 34418.7 hPa Calm     92 % 0 mm 0.0 W/m2 CLR
07:05 -10.1 °C -10.8 °C 34418.7 hPa Calm     92 % 0 mm 0.0 W/m2 CLR
07:10 -10.1 °C -10.8 °C 34405.1 hPa Calm     92 % 0 mm 0.0 W/m2 CLR
07:15 -10.4 °C -11.1 °C 34405.1 hPa Calm     92 % 0 mm 0.0 W/m2 CLR
07:20 -10.4 °C -11.1 °C 34405.1 hPa Calm     92 % 0 mm 0.0 W/m2 CLR
07:25 -10.4 °C -11.1 °C 34405.1 hPa Calm     92 % 0 mm 0.0 W/m2 CLR
07:30 -10.4 °C -11.1 °C 34405.1 hPa Calm     92 % 0 mm 0.0 W/m2 CLR
07:35 -10.7 °C -11.4 °C 34405.1 hPa Calm     92 % 0 mm 0.0 W/m2 CLR
07:40 -10.7 °C -11.4 °C 34405.1 hPa Calm     92 % 0 mm 0.0 W/m2 CLR
07:45 -10.7 °C -11.4 °C 34405.1 hPa Calm     92 % 0 mm 0.0 W/m2 CLR
07:50 -10.7 °C -11.4 °C 34405.1 hPa Calm     92 % 0 mm 0.0 W/m2 CLR
07:55 -10.7 °C -11.4 °C 34405.1 hPa Calm     92 % 0 mm 0.0 W/m2 CLR
08:00 -10.7 °C -11.4 °C 34395 hPa Calm     92 % 0 mm 0.0 W/m2 CLR
08:05 -11 °C -11.7 °C 34395 hPa Calm     92 % 0 mm 0.0 W/m2 OVC
08:10 -11 °C -11.7 °C 34395 hPa Calm     92 % 0 mm 0.0 W/m2 OVC
08:15 -11 °C -11.7 °C 34395 hPa Calm     92 % 0 mm 0.0 W/m2 OVC
08:20 -11 °C -11.7 °C 34395 hPa Calm     92 % 0 mm 5.0 W/m2 OVC
08:25 -11 °C -11.7 °C 34395 hPa Calm     92 % 0 mm 9.0 W/m2 BKN
08:30 -11 °C -11.7 °C 34395 hPa Calm     92 % 0 mm 18.0 W/m2 BKN
08:35 -11 °C -11.7 °C 34395 hPa Calm     92 % 0 mm 19.0 W/m2 BKN
08:40 -11 °C -11.7 °C 34395 hPa Calm     92 % 0 mm 25.0 W/m2 BKN
08:45 -11 °C -11.7 °C 34395 hPa Calm     92 % 0 mm 28.0 W/m2 BKN
08:50 -11 °C -11.7 °C 34395 hPa Calm     92 % 0 mm 33.0 W/m2 BKN
08:55 -11 °C -11.7 °C 34395 hPa Calm     92 % 0 mm 42.0 W/m2 BKN
09:00 -10.7 °C -11.4 °C 34395 hPa Calm     92 % 0 mm 56.0 W/m2 SCT
09:05 -10.7 °C -11.4 °C 34395 hPa Calm     92 % 0 mm 51.0 W/m2 SCT
09:10 -10.7 °C -11.3 °C 34395 hPa Calm     93 % 0 mm 77.0 W/m2 FEW
09:15 -10.7 °C -11.3 °C 34395 hPa Calm     93 % 0 mm 93.0 W/m2 FEW
09:20 -10.7 °C -11.3 °C 34384.8 hPa Calm     93 % 0 mm 105.0 W/m2 CLR
09:25 -10.4 °C -11 °C 34384.8 hPa NNE 3.1 km/h 3.1 km/h 93 % 0 mm 120.0 W/m2 CLR
09:30 -10.4 °C -11.1 °C 34395 hPa Calm     92 % 0 mm 139.0 W/m2 CLR
09:35 -10.4 °C -11.1 °C 34384.8 hPa Calm     92 % 0 mm 121.0 W/m2 CLR
09:40 -10.1 °C -10.9 °C 34384.8 hPa Calm     91 % 0 mm 162.0 W/m2 CLR
09:45 -10.1 °C -10.9 °C 34384.8 hPa Calm     90 % 0 mm 127.0 W/m2 CLR
09:50 -9.8 °C -10.7 °C 34384.8 hPa Calm     89 % 0 mm 207.0 W/m2 CLR
09:55 -9.8 °C -10.7 °C 34384.8 hPa Calm     89 % 0 mm 197.0 W/m2 CLR
10:00 -9.4 °C -10.7 °C 34384.8 hPa Calm     87 % 0 mm 178.0 W/m2 CLR
10:05 -9.4 °C -10.9 °C 34384.8 hPa NE 15.6 km/h 15.6 km/h 84 % 0 mm 109.0 W/m2 CLR
10:10 -9.1 °C -10.9 °C 34371.3 hPa NE 17.9 km/h 17.9 km/h 81 % 0 mm 260.0 W/m2 CLR
10:15 -9.1 °C -11.1 °C 34371.3 hPa East 9 km/h 9 km/h 80 % 0 mm 202.0 W/m2 CLR
10:20 -8.8 °C -11.3 °C 34371.3 hPa East 29.8 km/h 29.8 km/h 75 % 0 mm 163.0 W/m2 CLR
10:25 -8.5 °C -11.4 °C 34371.3 hPa ESE 32.8 km/h 32.8 km/h 71 % 0 mm 128.0 W/m2 CLR
10:30 -7.9 °C -11 °C 34361.1 hPa ESE 26.9 km/h 26.9 km/h 70 % 0 mm 123.0 W/m2 CLR
10:35 -7.9 °C -11 °C 34361.1 hPa East 29.8 km/h 29.8 km/h 70 % 0 mm 100.0 W/m2 CLR
10:40 -7.6 °C -10.8 °C 34361.1 hPa ENE 32.8 km/h 32.8 km/h 69 % 0 mm 139.0 W/m2 CLR
10:45 -7.3 °C -10.4 °C 34361.1 hPa East 23.8 km/h 23.8 km/h 70 % 0 mm 142.0 W/m2 CLR
10:50 -7.3 °C -10.4 °C 34361.1 hPa East 35.7 km/h 35.7 km/h 70 % 0 mm 137.0 W/m2 CLR
10:51 -7.3 °C -10.4 °C 34361.1 hPa ENE 35.7 km/h 35.7 km/h 70 % 0 mm 137.0 W/m2 CLR
10:56 -7 °C -10.1 °C 34361.1 hPa ENE 32.8 km/h 32.8 km/h 70 % 0 mm 156.0 W/m2 CLR
11:01 -7 °C -10.1 °C 34361.1 hPa ENE 35.7 km/h 35.7 km/h 70 % 0 mm 169.0 W/m2 CLR
11:06 -7 °C -10.1 °C 34361.1 hPa ENE 23.8 km/h 23.8 km/h 70 % 0 mm 181.0 W/m2 CLR
11:11 -7 °C -10.1 °C 34361.1 hPa ENE 15 km/h 15 km/h 70 % 0 mm 197.0 W/m2 CLR
11:16 -6.7 °C -9.6 °C 34361.1 hPa ENE 17.9 km/h 17.9 km/h 72 % 0 mm 237.0 W/m2 CLR
11:21 -6.7 °C -9.6 °C 34371.3 hPa ENE 29.8 km/h 29.8 km/h 72 % 0 mm 313.0 W/m2 CLR
11:26 -6.3 °C -9.3 °C 34361.1 hPa ENE 29.8 km/h 29.8 km/h 72 % 0 mm 353.0 W/m2 CLR
11:31 -6.3 °C -9.3 °C 34361.1 hPa ENE 32.8 km/h 32.8 km/h 72 % 0 mm 258.0 W/m2 CLR
11:33 -6.3 °C -9.3 °C 34361.1 hPa ENE 29.8 km/h 29.8 km/h 72 % 0 mm 318.0 W/m2 CLR
11:53 -6.3 °C -9.3 °C 34361.1 hPa ENE 29.8 km/h 29.8 km/h 72 % 0 mm 318.0 W/m2 CLR
11:58 -6.7 °C -9.2 °C 34337.4 hPa NE 38.8 km/h 38.8 km/h 75 % 0 mm 188.0 W/m2 CLR
12:03 -6.7 °C -9.4 °C 34337.4 hPa NE 47.6 km/h 47.6 km/h 73 % 0 mm 251.0 W/m2 CLR
12:08 -6.3 °C -9.1 °C 34337.4 hPa NE 41.7 km/h 41.7 km/h 73 % 0 mm 229.0 W/m2 CLR
12:13 -6.3 °C -9 °C 34337.4 hPa ENE 23.8 km/h 23.8 km/h 74 % 0 mm 211.0 W/m2 CLR
12:18 -6.1 °C -8.7 °C 34337.4 hPa ENE 41.7 km/h 41.7 km/h 74 % 0 mm 246.0 W/m2 CLR
12:23 -6.1 °C -8.8 °C 34327.3 hPa NE 46.7 km/h 46.7 km/h 73 % 0 mm 566.0 W/m2 CLR
12:28 -6.1 °C -8.8 °C 34327.3 hPa NE 44.7 km/h 44.7 km/h 73 % 0 mm 239.0 W/m2 CLR
12:33 -6.1 °C -8.8 °C 34327.3 hPa ENE 47.6 km/h 47.6 km/h 73 % 0 mm 186.0 W/m2 CLR
12:38 -6.3 °C -9 °C 34327.3 hPa ENE 32.8 km/h 32.8 km/h 74 % 0 mm 95.0 W/m2 CLR
12:43 -6.7 °C -9.2 °C 34327.3 hPa ENE 44.7 km/h 44.7 km/h 75 % 0 mm 44.0 W/m2 FEW
12:48 -6.7 °C -9 °C 34313.7 hPa NE 38.8 km/h 38.8 km/h 77 % 0 mm 47.0 W/m2 SCT
12:53 -7 °C -9.1 °C 34313.7 hPa NE 47.6 km/h 47.6 km/h 79 % 0 mm 60.0 W/m2 SCT
12:58 -7.3 °C -9.1 °C 34313.7 hPa ENE 32.8 km/h 32.8 km/h 81 % 0 mm 60.0 W/m2 SCT
13:04 -7.3 °C -9.1 °C 34327.3 hPa East 44.7 km/h 44.7 km/h 81 % 0 mm 60.0 W/m2 SCT
13:09 -7.6 °C -9.4 °C 34327.3 hPa East 32.8 km/h 32.8 km/h 81 % 0 mm 67.0 W/m2 SCT
13:14 -7.6 °C -9.3 °C 34313.7 hPa ENE 32.8 km/h 32.8 km/h 82 % 0 mm 74.0 W/m2 FEW
13:19 -7.6 °C -9.2 °C 34313.7 hPa NE 35.7 km/h 35.7 km/h 83 % 0 mm 95.0 W/m2 FEW
13:24 -7.6 °C -9.2 °C 34313.7 hPa NNE 38.8 km/h 38.8 km/h 83 % 0 mm 158.0 W/m2 CLR
13:29 -7.6 °C -9.3 °C 34313.7 hPa NNE 29.8 km/h 29.8 km/h 82 % 0 mm 487.0 W/m2 CLR
13:34 -7.3 °C -9.1 °C 34313.7 hPa NNE 23.8 km/h 23.8 km/h 82 % 0 mm 786.0 W/m2 CLR
13:39 -7.3 °C -9.3 °C 34313.7 hPa ENE 50.7 km/h 50.7 km/h 79 % 0 mm 348.0 W/m2 CLR
13:44 -7.3 °C -9.3 °C 34303.6 hPa NE 44.1 km/h 44.1 km/h 79 % 0 mm 232.0 W/m2 CLR
13:49 -7.6 °C -9.7 °C 34303.6 hPa NE 44.7 km/h 44.7 km/h 79 % 0 mm 257.0 W/m2 CLR
13:54 -7.3 °C -9.3 °C 34293.4 hPa East 29.8 km/h 29.8 km/h 79 % 0 mm 267.0 W/m2 CLR
13:59 -7.3 °C -9.5 °C 34293.4 hPa ENE 36.2 km/h 36.2 km/h 78 % 0 mm 274.0 W/m2 CLR
14:04 -7.3 °C -9.3 °C 34293.4 hPa ENE 50.7 km/h 50.7 km/h 79 % 0 mm 225.0 W/m2 CLR
14:09 -7.3 °C -9.3 °C 34279.9 hPa NE 41.7 km/h 41.7 km/h 79 % 0 mm 169.0 W/m2 CLR
14:14 -7.3 °C -9.3 °C 34279.9 hPa ENE 29.8 km/h 29.8 km/h 79 % 0 mm 264.0 W/m2 CLR
14:19 -7.3 °C -9.3 °C 34279.9 hPa ENE 35.7 km/h 35.7 km/h 79 % 0 mm 172.0 W/m2 CLR
14:24 -7.3 °C -9.3 °C 34269.7 hPa NE 23.8 km/h 23.8 km/h 79 % 0 mm 174.0 W/m2 CLR
14:29 -7.3 °C -9.2 °C 34279.9 hPa NE 33.6 km/h 33.6 km/h 80 % 0 mm 302.0 W/m2 CLR
14:34 -7 °C -8.8 °C 34269.7 hPa ENE 26.9 km/h 26.9 km/h 81 % 0 mm 663.0 W/m2 CLR
14:39 -6.7 °C -8.6 °C 34256.2 hPa NE 15 km/h 15 km/h 81 % 0 mm 608.0 W/m2 CLR
14:44 -6.3 °C -8.3 °C 34256.2 hPa NE 20.9 km/h 20.9 km/h 80 % 0 mm 478.0 W/m2 CLR
14:49 -6.3 °C -8.6 °C 34246 hPa NE 23.8 km/h 23.8 km/h 78 % 0 mm 517.0 W/m2 CLR
14:54 -5.7 °C -8.2 °C 34246 hPa ENE 23.3 km/h 23.3 km/h 76 % 0 mm 517.0 W/m2 CLR
14:59 -5.7 °C -8.7 °C 34235.8 hPa NE 26.9 km/h 26.9 km/h 72 % 0 mm 246.0 W/m2 CLR
15:04 -5.7 °C -8.7 °C 34222.3 hPa NNE 23.8 km/h 23.8 km/h 72 % 0 mm 125.0 W/m2 CLR
15:09 -6.1 °C -9.1 °C 34222.3 hPa NE 23.8 km/h 23.8 km/h 71 % 0 mm 102.0 W/m2 CLR
15:14 -6.3 °C -9.4 °C 34222.3 hPa Calm     71 % 0 mm 113.0 W/m2 CLR
15:19 -6.3 °C -9.3 °C 34222.3 hPa NE 12.9 km/h 12.9 km/h 72 % 0 mm 104.0 W/m2 CLR
15:24 -6.3 °C -9.3 °C 34235.8 hPa ENE 15 km/h 15 km/h 72 % 0 mm 79.0 W/m2 CLR
15:29 -6.3 °C -9.6 °C 34235.8 hPa ESE 10.3 km/h 10.3 km/h 69 % 0 mm 65.0 W/m2 FEW
15:34 -6.1 °C -9.8 °C 34235.8 hPa South 17.9 km/h 17.9 km/h 65 % 0 mm 67.0 W/m2 FEW
15:39 -6.1 °C -9.7 °C 34235.8 hPa WSW 44.7 km/h 44.7 km/h 66 % 0 mm 63.0 W/m2 SCT
15:44 -6.7 °C -9.8 °C 34246 hPa SW 50.7 km/h 50.7 km/h 70 % 0 mm 25.0 W/m2 SCT
15:49 -7 °C -9.6 °C 34246 hPa SW 35.7 km/h 35.7 km/h 74 % 0 mm 9.0 W/m2 BKN
15:50 -7.3 °C -9.9 °C 34256.2 hPa SSW 32.8 km/h 32.8 km/h 74 % 0 mm 7.0 W/m2 BKN
15:55 -7.6 °C -10 °C 34269.7 hPa SW 41.4 km/h 41.4 km/h 76 % 7.62 mm 0.0 W/m2 RA
16:00 -7.9 °C -9.8 °C 34256.2 hPa WSW 29.8 km/h 29.8 km/h 80 % 38.1 mm 7.0 W/m2 RA
16:05 -8.2 °C -9.9 °C 34256.2 hPa SSE 29.8 km/h 29.8 km/h 82 % 38.1 mm 7.0 W/m2 RA
16:10 -8.5 °C -10.1 °C 34256.2 hPa Calm     84 % 38.1 mm 7.0 W/m2 BKN
16:15 -8.5 °C -10.1 °C 34246 hPa SSE 32.8 km/h 32.8 km/h 83 % 50.8 mm 5.0 W/m2 RA
16:20 -8.8 °C -10.3 °C 34246 hPa SSE 29.8 km/h 29.8 km/h 84 % 58.42 mm 5.0 W/m2 RA
16:25 -8.8 °C -10.2 °C 34235.8 hPa South 12.9 km/h 12.9 km/h 85 % 58.42 mm 5.0 W/m2 RA
16:30 -9.1 °C -10.5 °C 34246 hPa SSE 9 km/h 9 km/h 85 % 63.5 mm 5.0 W/m2 RA
16:35 -9.1 °C -10.4 °C 34246 hPa Calm     86 % 71.12 mm 5.0 W/m2 RA
16:40 -9.1 °C -10.4 °C 34235.8 hPa Calm     86 % 76.2 mm 7.0 W/m2 RA
16:45 -9.4 °C -10.7 °C 34222.3 hPa Calm     87 % 83.82 mm 9.0 W/m2 RA
16:47 -9.4 °C -10.7 °C 34222.3 hPa Calm     87 % 83.82 mm 11.0 W/m2 RA
16:52 -9.4 °C -10.7 °C 34222.3 hPa Calm     87 % 83.82 mm 12.0 W/m2 BKN
16:57 -9.4 °C -10.7 °C 34222.3 hPa Calm     87 % 58.42 mm 19.0 W/m2 RA
17:02 -9.4 °C -10.6 °C 34212.1 hPa Calm     88 % 50.8 mm 26.0 W/m2 BKN
17:07 -9.4 °C -10.6 °C 34212.1 hPa Calm     88 % 45.72 mm 37.0 W/m2 BKN
17:12 -9.4 °C -10.6 °C 34212.1 hPa Calm     88 % 38.1 mm 53.0 W/m2 BKN
17:18 -9.4 °C -10.6 °C 34212.1 hPa Calm     88 % 38.1 mm 72.0 W/m2 SCT
17:23 -9.4 °C -10.4 °C 34212.1 hPa Calm     89 % 33.02 mm 74.0 W/m2 FEW
17:28 -9.4 °C -10.4 °C 34212.1 hPa Calm     89 % 25.4 mm 69.0 W/m2 FEW
17:33 -9.1 °C -10.2 °C 34212.1 hPa Calm     89 % 12.7 mm 46.0 W/m2 FEW
17:38 -9.4 °C -10.6 °C 34212.1 hPa East 11.9 km/h 11.9 km/h 88 % 12.7 mm 28.0 W/m2 SCT
17:43 -9.4 °C -10.6 °C 34212.1 hPa Calm     88 % 12.7 mm 23.0 W/m2 BKN
17:48 -9.4 °C -10.6 °C 34212.1 hPa Calm   0.5 km/h 88 % 7.62 mm 14.0 W/m2 BKN
17:53 -9.4 °C -10.6 °C 34222.3 hPa ENE 23.8 km/h 23.8 km/h 88 % 7.62 mm 9.0 W/m2 BKN
17:58 -9.4 °C -10.7 °C 34222.3 hPa ENE 41.7 km/h 41.7 km/h 87 % 7.62 mm 7.0 W/m2 RA
18:03 -9.4 °C -10.8 °C 34222.3 hPa ENE 35.7 km/h 35.7 km/h 85 % 7.62 mm 7.0 W/m2 BKN
18:08 -9.4 °C -10.7 °C 34212.1 hPa ENE 29.8 km/h 29.8 km/h 86 % 7.62 mm 7.0 W/m2 BKN
18:13 -9.4 °C -10.6 °C 34212.1 hPa ENE 26.9 km/h 26.9 km/h 88 % 7.62 mm 7.0 W/m2 BKN
18:18 -9.4 °C -10.6 °C 34212.1 hPa NE 15 km/h 15 km/h 88 % 7.62 mm 9.0 W/m2 BKN
18:23 -9.4 °C -10.6 °C 34198.6 hPa NE 17.9 km/h 17.9 km/h 88 % 7.62 mm 12.0 W/m2 BKN
18:28 -9.4 °C -10.6 °C 34198.6 hPa Calm     88 % 7.62 mm 16.0 W/m2 BKN
18:33 -9.4 °C -10.6 °C 34198.6 hPa Calm     88 % 7.62 mm 19.0 W/m2 BKN
18:38 -9.4 °C -10.7 °C 34198.6 hPa Calm     87 % 7.62 mm 21.0 W/m2 BKN
18:43 -9.4 °C -10.7 °C 34198.6 hPa Calm     87 % 7.62 mm 23.0 W/m2 BKN
18:48 -9.4 °C -10.7 °C 34198.6 hPa Calm     87 % 7.62 mm 23.0 W/m2 BKN
18:53 -9.4 °C -10.6 °C 34198.6 hPa Calm     88 % 7.62 mm 16.0 W/m2 BKN
18:58 -9.4 °C -10.6 °C 34212.1 hPa Calm     88 % 0 mm 12.0 W/m2 BKN
19:03 -9.4 °C -10.6 °C 34212.1 hPa Calm     88 % 0 mm 5.0 W/m2 OVC
19:08 -9.4 °C -10.4 °C 34212.1 hPa Calm     89 % 0 mm 5.0 W/m2 OVC
19:13 -9.8 °C -10.7 °C 34212.1 hPa Calm     89 % 0 mm 0.0 W/m2 OVC
19:18 -9.8 °C -10.7 °C 34212.1 hPa Calm     89 % 0 mm 0.0 W/m2 OVC
19:23 -9.8 °C -10.7 °C 34222.3 hPa Calm     89 % 0 mm 0.0 W/m2 OVC
19:28 -9.8 °C -10.7 °C 34222.3 hPa Calm     89 % 0 mm 0.0 W/m2 CLR
19:33 -9.8 °C -10.7 °C 34222.3 hPa Calm     89 % 0 mm 0.0 W/m2 CLR
19:38 -9.8 °C -10.7 °C 34222.3 hPa Calm     89 % 0 mm 0.0 W/m2 CLR
19:43 -9.8 °C -10.7 °C 34222.3 hPa Calm     90 % 0 mm 0.0 W/m2 CLR
19:48 -9.8 °C -10.7 °C 34222.3 hPa Calm     90 % 0 mm 0.0 W/m2 CLR
19:53 -9.8 °C -10.7 °C 34222.3 hPa Calm     90 % 0 mm 0.0 W/m2 CLR
19:58 -9.8 °C -10.7 °C 34222.3 hPa Calm     90 % 0 mm 0.0 W/m2 CLR
20:08 -10.1 °C -10.9 °C 34222.3 hPa Calm     90 % 0 mm 0.0 W/m2 CLR
20:13 -10.1 °C -10.9 °C 34222.3 hPa Calm     90 % 0 mm 0.0 W/m2 CLR
20:18 -10.1 °C -10.9 °C 34222.3 hPa Calm     91 % 0 mm 0.0 W/m2 CLR
20:23 -10.1 °C -10.9 °C 34235.8 hPa Calm     91 % 0 mm 0.0 W/m2 CLR
20:28 -9.8 °C -10.6 °C 34235.8 hPa Calm     91 % 0 mm 0.0 W/m2 CLR
20:33 -9.8 °C -10.6 °C 34235.8 hPa SW 11.9 km/h 11.9 km/h 91 % 0 mm 0.0 W/m2 CLR
20:38 -9.8 °C -10.6 °C 34246 hPa SSE 11.9 km/h 11.9 km/h 91 % 0 mm 0.0 W/m2 CLR
20:43 -9.8 °C -10.7 °C 34246 hPa South 20.9 km/h 20.9 km/h 90 % 0 mm 0.0 W/m2 CLR
20:48 -9.8 °C -10.7 °C 34246 hPa Calm     90 % 0 mm 0.0 W/m2 CLR
20:53 -9.8 °C -10.7 °C 34256.2 hPa Calm     90 % 0 mm 0.0 W/m2 CLR
20:58 -9.8 °C -10.7 °C 34256.2 hPa Calm     90 % 0 mm 0.0 W/m2 CLR
21:03 -9.8 °C -10.7 °C 34256.2 hPa Calm     90 % 0 mm 0.0 W/m2 CLR
21:08 -9.8 °C -10.7 °C 34256.2 hPa Calm     90 % 0 mm 0.0 W/m2 CLR
21:13 -9.8 °C -10.7 °C 34256.2 hPa Calm     90 % 0 mm 0.0 W/m2 CLR
21:18 -10.1 °C -10.9 °C 34256.2 hPa Calm     90 % 0 mm 0.0 W/m2 CLR
21:23 -9.8 °C -10.7 °C 34269.7 hPa South 11.9 km/h 11.9 km/h 90 % 0 mm 0.0 W/m2 CLR
21:28 -9.8 °C -10.7 °C 34269.7 hPa South 29.8 km/h 29.8 km/h 90 % 0 mm 0.0 W/m2 CLR
21:33 -9.8 °C -10.7 °C 34279.9 hPa SSE 29.8 km/h 29.8 km/h 89 % 0 mm 0.0 W/m2 CLR
21:38 -9.8 °C -10.7 °C 34279.9 hPa South 29.8 km/h 29.8 km/h 89 % 0 mm 0.0 W/m2 CLR
21:43 -9.4 °C -10.4 °C 34279.9 hPa South 20.9 km/h 20.9 km/h 89 % 0 mm 0.0 W/m2 CLR
21:48 -9.4 °C -10.6 °C 34279.9 hPa South 11.9 km/h 11.9 km/h 88 % 0 mm 0.0 W/m2 CLR
21:53 -9.4 °C -10.6 °C 34279.9 hPa Calm     88 % 0 mm 0.0 W/m2 CLR
21:58 -9.4 °C -10.6 °C 34279.9 hPa Calm     88 % 0 mm 0.0 W/m2 CLR
22:03 -9.8 °C -10.8 °C 34279.9 hPa Calm     88 % 0 mm 0.0 W/m2 CLR
22:08 -9.8 °C -10.8 °C 34293.4 hPa Calm     88 % 0 mm 0.0 W/m2 CLR
22:13 -9.8 °C -10.8 °C 34293.4 hPa Calm     88 % 0 mm 0.0 W/m2 CLR
22:18 -9.8 °C -10.7 °C 34293.4 hPa Calm     89 % 0 mm 0.0 W/m2 CLR
22:23 -9.8 °C -10.7 °C 34293.4 hPa Calm     89 % 0 mm 0.0 W/m2 CLR
22:28 -9.8 °C -10.7 °C 34303.6 hPa Calm     89 % 0 mm 0.0 W/m2 CLR
22:33 -9.8 °C -10.7 °C 34293.4 hPa Calm     89 % 0 mm 0.0 W/m2 CLR
22:39 -9.8 °C -10.7 °C 34303.6 hPa Calm     89 % 0 mm 0.0 W/m2 CLR
22:44 -10.1 °C -11.1 °C 34303.6 hPa Calm     89 % 0 mm 0.0 W/m2 CLR
22:49 -10.1 °C -11.2 °C 34303.6 hPa Calm     88 % 0 mm 0.0 W/m2 CLR
22:54 -10.1 °C -11.2 °C 34303.6 hPa Calm     88 % 0 mm 0.0 W/m2 CLR
22:59 -10.1 °C -11.2 °C 34303.6 hPa Calm     88 % 0 mm 0.0 W/m2 CLR
23:04 -10.1 °C -11.2 °C 34303.6 hPa Calm     88 % 0 mm 0.0 W/m2 CLR
23:09 -10.1 °C -11.2 °C 34303.6 hPa Calm     88 % 0 mm 0.0 W/m2 CLR
23:14 -10.1 °C -11.2 °C 34303.6 hPa Calm     88 % 0 mm 0.0 W/m2 CLR
23:19 -10.1 °C -11.2 °C 34303.6 hPa Calm     88 % 0 mm 0.0 W/m2 CLR
23:24 -10.1 °C -11.2 °C 34313.7 hPa Calm     88 % 0 mm 0.0 W/m2 CLR
23:29 -10.1 °C -11.2 °C 34303.6 hPa Calm     88 % 0 mm 0.0 W/m2 CLR
23:34 -10.1 °C -11.2 °C 34303.6 hPa Calm     88 % 0 mm 0.0 W/m2 CLR
23:39 -10.1 °C -11.2 °C 34303.6 hPa Calm     88 % 0 mm 0.0 W/m2 CLR
23:44 -10.4 °C -11.4 °C 34303.6 hPa Calm     88 % 0 mm 0.0 W/m2 CLR
23:49 -10.4 °C -11.4 °C 34303.6 hPa Calm     88 % 0 mm 0.0 W/m2 CLR
23:55 -10.4 °C -11.4 °C 34303.6 hPa Calm     88 % 0 mm 0.0 W/m2 CLR
Lo Temps de Massalio
Compliments of Weather Underground - 1.25 mb